Almond, Wisconsin
Current Conditions -  °F | °C
As of 1:56 AM on Friday 28 Nov 2014 (Local Time) from KY50 Reporting Station
Overcast Overcast  
Wind Chill: -14°   Ceiling: 8500
Heat Index: -14°   Visibility: 10mi
Dew Point: -17°   Wind: 0mph
Humidity: 80%   Direction: NA
Pressure: 30.34"   Gusts: NA
Location:  44.26°N, 89.41°W
Report Text: KY50 280756Z AUTO 00000KT 10SM OVC085 M14/M17 A3034 RMK AO2 TSNO T11441172 SLP290
Loading
Personal Weather Stations






























Interactive Weather Map New forecast layout! Learn more

10-Day Weather Forecast

Advertisements
Track Severe Weather on mobile